sensor_id;sensor_type;location;lat;lon;timestamp;P1;durP1;ratioP1;P2;durP2;ratioP2
16403;SDS011;8311;50.158;8.642;2024-01-25T00:02:28;6.50;;;2.45;;
16403;SDS011;8311;50.158;8.642;2024-01-25T00:05:23;4.45;;;1.85;;
16403;SDS011;8311;50.158;8.642;2024-01-25T00:08:17;6.00;;;2.25;;
16403;SDS011;8311;50.158;8.642;2024-01-25T00:11:10;3.75;;;1.65;;
16403;SDS011;8311;50.158;8.642;2024-01-25T00:14:03;5.18;;;2.10;;
16403;SDS011;8311;50.158;8.642;2024-01-25T00:16:56;5.85;;;2.10;;
16403;SDS011;8311;50.158;8.642;2024-01-25T00:19:49;4.53;;;1.98;;
16403;SDS011;8311;50.158;8.642;2024-01-25T00:26:28;2.97;;;1.73;;
16403;SDS011;8311;50.158;8.642;2024-01-25T00:29:21;7.32;;;2.00;;
16403;SDS011;8311;50.158;8.642;2024-01-25T00:32:14;7.30;;;2.20;;
16403;SDS011;8311;50.158;8.642;2024-01-25T00:35:07;5.93;;;2.30;;
16403;SDS011;8311;50.158;8.642;2024-01-25T00:38:02;4.35;;;1.92;;
16403;SDS011;8311;50.158;8.642;2024-01-25T00:40:56;4.03;;;1.77;;
16403;SDS011;8311;50.158;8.642;2024-01-25T00:43:51;3.92;;;1.67;;
16403;SDS011;8311;50.158;8.642;2024-01-25T00:46:44;6.85;;;1.77;;
16403;SDS011;8311;50.158;8.642;2024-01-25T00:49:39;4.50;;;1.85;;
16403;SDS011;8311;50.158;8.642;2024-01-25T00:52:33;5.30;;;1.95;;
16403;SDS011;8311;50.158;8.642;2024-01-25T00:55:27;4.20;;;1.70;;
16403;SDS011;8311;50.158;8.642;2024-01-25T00:58:21;4.32;;;1.77;;
16403;SDS011;8311;50.158;8.642;2024-01-25T01:01:17;3.22;;;1.52;;
16403;SDS011;8311;50.158;8.642;2024-01-25T01:04:13;5.40;;;2.13;;
16403;SDS011;8311;50.158;8.642;2024-01-25T01:07:07;5.15;;;2.10;;
16403;SDS011;8311;50.158;8.642;2024-01-25T01:10:02;6.28;;;1.95;;
16403;SDS011;8311;50.158;8.642;2024-01-25T01:12:56;5.88;;;2.20;;
16403;SDS011;8311;50.158;8.642;2024-01-25T01:15:49;5.07;;;2.00;;
16403;SDS011;8311;50.158;8.642;2024-01-25T01:18:43;4.20;;;1.60;;
16403;SDS011;8311;50.158;8.642;2024-01-25T01:21:36;4.97;;;1.95;;
16403;SDS011;8311;50.158;8.642;2024-01-25T01:28:14;3.38;;;1.38;;
16403;SDS011;8311;50.158;8.642;2024-01-25T01:31:07;5.63;;;1.63;;
16403;SDS011;8311;50.158;8.642;2024-01-25T01:34:01;5.60;;;1.80;;
16403;SDS011;8311;50.158;8.642;2024-01-25T01:36:55;5.25;;;2.08;;
16403;SDS011;8311;50.158;8.642;2024-01-25T01:39:48;5.45;;;2.05;;
16403;SDS011;8311;50.158;8.642;2024-01-25T01:42:42;4.45;;;2.13;;
16403;SDS011;8311;50.158;8.642;2024-01-25T01:45:35;5.25;;;2.20;;
16403;SDS011;8311;50.158;8.642;2024-01-25T01:48:28;3.95;;;1.70;;
16403;SDS011;8311;50.158;8.642;2024-01-25T01:51:23;4.20;;;1.95;;
16403;SDS011;8311;50.158;8.642;2024-01-25T01:54:16;4.93;;;2.03;;
16403;SDS011;8311;50.158;8.642;2024-01-25T01:57:10;6.35;;;1.98;;
16403;SDS011;8311;50.158;8.642;2024-01-25T02:00:03;5.18;;;1.88;;
16403;SDS011;8311;50.158;8.642;2024-01-25T02:06:45;4.78;;;1.77;;
16403;SDS011;8311;50.158;8.642;2024-01-25T02:09:39;3.80;;;1.50;;
16403;SDS011;8311;50.158;8.642;2024-01-25T02:12:32;3.75;;;1.77;;
16403;SDS011;8311;50.158;8.642;2024-01-25T02:15:25;4.60;;;1.85;;
16403;SDS011;8311;50.158;8.642;2024-01-25T02:18:18;3.28;;;1.48;;
16403;SDS011;8311;50.158;8.642;2024-01-25T02:21:12;3.80;;;1.48;;
16403;SDS011;8311;50.158;8.642;2024-01-25T02:24:07;4.20;;;1.75;;
16403;SDS011;8311;50.158;8.642;2024-01-25T02:27:00;3.22;;;1.70;;
16403;SDS011;8311;50.158;8.642;2024-01-25T02:29:56;4.88;;;1.75;;
16403;SDS011;8311;50.158;8.642;2024-01-25T02:32:49;4.28;;;1.98;;
16403;SDS011;8311;50.158;8.642;2024-01-25T02:35:43;5.05;;;1.80;;
16403;SDS011;8311;50.158;8.642;2024-01-25T02:38:36;4.68;;;1.80;;
16403;SDS011;8311;50.158;8.642;2024-01-25T02:41:30;4.15;;;1.67;;
16403;SDS011;8311;50.158;8.642;2024-01-25T02:44:24;4.00;;;1.63;;
16403;SDS011;8311;50.158;8.642;2024-01-25T02:47:17;4.57;;;1.60;;
16403;SDS011;8311;50.158;8.642;2024-01-25T02:53:54;5.30;;;1.67;;
16403;SDS011;8311;50.158;8.642;2024-01-25T02:56:48;4.22;;;1.67;;
16403;SDS011;8311;50.158;8.642;2024-01-25T02:59:41;3.72;;;1.70;;
16403;SDS011;8311;50.158;8.642;2024-01-25T03:02:34;4.75;;;1.50;;
16403;SDS011;8311;50.158;8.642;2024-01-25T03:05:27;3.63;;;1.45;;
16403;SDS011;8311;50.158;8.642;2024-01-25T03:08:20;5.60;;;1.90;;
16403;SDS011;8311;50.158;8.642;2024-01-25T03:11:13;3.42;;;1.55;;
16403;SDS011;8311;50.158;8.642;2024-01-25T03:14:08;5.43;;;1.70;;
16403;SDS011;8311;50.158;8.642;2024-01-25T03:17:01;3.85;;;1.60;;
16403;SDS011;8311;50.158;8.642;2024-01-25T03:19:54;3.92;;;1.70;;
16403;SDS011;8311;50.158;8.642;2024-01-25T03:22:47;5.75;;;1.75;;
16403;SDS011;8311;50.158;8.642;2024-01-25T03:25:40;3.88;;;1.50;;
16403;SDS011;8311;50.158;8.642;2024-01-25T03:28:33;4.90;;;1.80;;
16403;SDS011;8311;50.158;8.642;2024-01-25T03:31:28;6.70;;;2.20;;
16403;SDS011;8311;50.158;8.642;2024-01-25T03:34:21;4.65;;;1.73;;
16403;SDS011;8311;50.158;8.642;2024-01-25T03:37:15;4.10;;;1.60;;
16403;SDS011;8311;50.158;8.642;2024-01-25T03:40:08;4.10;;;1.75;;
16403;SDS011;8311;50.158;8.642;2024-01-25T03:43:02;4.55;;;1.63;;
16403;SDS011;8311;50.158;8.642;2024-01-25T03:46:09;3.70;;;1.60;;
16403;SDS011;8311;50.158;8.642;2024-01-25T03:49:04;5.55;;;1.67;;
16403;SDS011;8311;50.158;8.642;2024-01-25T03:51:57;3.92;;;1.70;;
16403;SDS011;8311;50.158;8.642;2024-01-25T03:54:50;4.75;;;1.70;;
16403;SDS011;8311;50.158;8.642;2024-01-25T03:57:43;3.67;;;1.65;;
16403;SDS011;8311;50.158;8.642;2024-01-25T04:00:37;4.38;;;1.65;;
16403;SDS011;8311;50.158;8.642;2024-01-25T04:07:15;5.10;;;1.40;;
16403;SDS011;8311;50.158;8.642;2024-01-25T04:10:08;3.42;;;1.40;;
16403;SDS011;8311;50.158;8.642;2024-01-25T04:13:02;3.42;;;1.75;;
16403;SDS011;8311;50.158;8.642;2024-01-25T04:15:58;3.38;;;1.38;;
16403;SDS011;8311;50.158;8.642;2024-01-25T04:18:51;5.97;;;1.85;;
16403;SDS011;8311;50.158;8.642;2024-01-25T04:21:44;5.20;;;1.77;;
16403;SDS011;8311;50.158;8.642;2024-01-25T04:24:39;3.83;;;1.55;;
16403;SDS011;8311;50.158;8.642;2024-01-25T04:27:32;5.88;;;1.55;;
16403;SDS011;8311;50.158;8.642;2024-01-25T04:30:25;3.47;;;1.55;;
16403;SDS011;8311;50.158;8.642;2024-01-25T04:33:18;3.70;;;1.55;;
16403;SDS011;8311;50.158;8.642;2024-01-25T04:36:12;3.75;;;1.33;;
16403;SDS011;8311;50.158;8.642;2024-01-25T04:39:06;4.65;;;1.90;;
16403;SDS011;8311;50.158;8.642;2024-01-25T04:42:00;2.50;;;1.27;;
16403;SDS011;8311;50.158;8.642;2024-01-25T04:44:54;3.65;;;1.67;;
16403;SDS011;8311;50.158;8.642;2024-01-25T04:47:47;3.92;;;1.65;;
16403;SDS011;8311;50.158;8.642;2024-01-25T04:50:41;4.80;;;1.70;;
16403;SDS011;8311;50.158;8.642;2024-01-25T04:53:35;3.53;;;1.60;;
16403;SDS011;8311;50.158;8.642;2024-01-25T04:56:28;6.07;;;1.83;;
16403;SDS011;8311;50.158;8.642;2024-01-25T04:59:23;4.88;;;2.10;;
16403;SDS011;8311;50.158;8.642;2024-01-25T05:02:17;5.70;;;1.50;;
16403;SDS011;8311;50.158;8.642;2024-01-25T05:05:10;4.95;;;1.60;;
16403;SDS011;8311;50.158;8.642;2024-01-25T05:08:05;5.78;;;1.65;;
16403;SDS011;8311;50.158;8.642;2024-01-25T05:10:59;3.25;;;1.38;;
16403;SDS011;8311;50.158;8.642;2024-01-25T05:13:52;5.25;;;2.17;;
16403;SDS011;8311;50.158;8.642;2024-01-25T05:16:47;3.45;;;1.52;;
16403;SDS011;8311;50.158;8.642;2024-01-25T05:19:40;4.60;;;1.92;;
16403;SDS011;8311;50.158;8.642;2024-01-25T05:22:33;3.92;;;1.35;;
16403;SDS011;8311;50.158;8.642;2024-01-25T05:25:31;3.35;;;1.30;;
16403;SDS011;8311;50.158;8.642;2024-01-25T05:28:24;4.75;;;1.90;;
16403;SDS011;8311;50.158;8.642;2024-01-25T05:31:17;3.20;;;1.42;;
16403;SDS011;8311;50.158;8.642;2024-01-25T05:34:12;3.10;;;1.35;;
16403;SDS011;8311;50.158;8.642;2024-01-25T05:37:05;4.28;;;1.65;;
16403;SDS011;8311;50.158;8.642;2024-01-25T05:39:58;4.40;;;1.70;;
16403;SDS011;8311;50.158;8.642;2024-01-25T05:42:52;3.65;;;1.40;;
16403;SDS011;8311;50.158;8.642;2024-01-25T05:45:45;6.10;;;2.05;;
16403;SDS011;8311;50.158;8.642;2024-01-25T05:48:38;5.32;;;1.65;;
16403;SDS011;8311;50.158;8.642;2024-01-25T05:51:33;4.40;;;1.88;;
16403;SDS011;8311;50.158;8.642;2024-01-25T05:54:27;3.55;;;1.90;;
16403;SDS011;8311;50.158;8.642;2024-01-25T05:57:20;4.95;;;1.80;;
16403;SDS011;8311;50.158;8.642;2024-01-25T06:00:13;4.50;;;1.70;;
16403;SDS011;8311;50.158;8.642;2024-01-25T06:03:11;4.68;;;1.85;;
16403;SDS011;8311;50.158;8.642;2024-01-25T06:06:05;4.60;;;1.60;;
16403;SDS011;8311;50.158;8.642;2024-01-25T06:09:01;4.60;;;1.40;;
16403;SDS011;8311;50.158;8.642;2024-01-25T06:12:05;4.57;;;1.70;;
16403;SDS011;8311;50.158;8.642;2024-01-25T06:14:58;5.18;;;1.52;;
16403;SDS011;8311;50.158;8.642;2024-01-25T06:17:51;5.47;;;1.70;;
16403;SDS011;8311;50.158;8.642;2024-01-25T06:20:45;4.30;;;1.77;;
16403;SDS011;8311;50.158;8.642;2024-01-25T06:23:38;5.65;;;1.83;;
16403;SDS011;8311;50.158;8.642;2024-01-25T06:26:32;6.88;;;1.85;;
16403;SDS011;8311;50.158;8.642;2024-01-25T06:29:26;5.68;;;1.80;;
16403;SDS011;8311;50.158;8.642;2024-01-25T06:32:19;5.78;;;1.48;;
16403;SDS011;8311;50.158;8.642;2024-01-25T06:39:01;4.78;;;1.77;;
16403;SDS011;8311;50.158;8.642;2024-01-25T06:41:56;4.57;;;1.63;;
16403;SDS011;8311;50.158;8.642;2024-01-25T06:44:49;4.03;;;1.58;;
16403;SDS011;8311;50.158;8.642;2024-01-25T06:47:42;4.22;;;1.52;;
16403;SDS011;8311;50.158;8.642;2024-01-25T06:50:35;4.88;;;1.40;;
16403;SDS011;8311;50.158;8.642;2024-01-25T06:53:28;4.13;;;2.05;;
16403;SDS011;8311;50.158;8.642;2024-01-25T06:56:22;4.28;;;1.65;;
16403;SDS011;8311;50.158;8.642;2024-01-25T06:59:16;6.95;;;1.80;;
16403;SDS011;8311;50.158;8.642;2024-01-25T07:05:54;6.53;;;1.92;;
16403;SDS011;8311;50.158;8.642;2024-01-25T07:08:47;3.63;;;1.80;;
16403;SDS011;8311;50.158;8.642;2024-01-25T07:11:41;3.85;;;1.60;;
16403;SDS011;8311;50.158;8.642;2024-01-25T07:14:35;4.80;;;1.98;;
16403;SDS011;8311;50.158;8.642;2024-01-25T07:17:28;5.88;;;1.95;;
16403;SDS011;8311;50.158;8.642;2024-01-25T07:20:22;6.28;;;2.22;;
16403;SDS011;8311;50.158;8.642;2024-01-25T07:23:16;6.88;;;2.08;;
16403;SDS011;8311;50.158;8.642;2024-01-25T07:26:15;5.07;;;2.10;;
16403;SDS011;8311;50.158;8.642;2024-01-25T07:29:10;5.65;;;1.85;;
16403;SDS011;8311;50.158;8.642;2024-01-25T07:32:05;6.05;;;1.75;;
16403;SDS011;8311;50.158;8.642;2024-01-25T07:35:02;5.35;;;1.92;;
16403;SDS011;8311;50.158;8.642;2024-01-25T07:37:55;5.97;;;2.05;;
16403;SDS011;8311;50.158;8.642;2024-01-25T07:40:48;5.40;;;1.92;;
16403;SDS011;8311;50.158;8.642;2024-01-25T07:43:42;5.45;;;2.00;;
16403;SDS011;8311;50.158;8.642;2024-01-25T07:46:36;4.65;;;1.65;;
16403;SDS011;8311;50.158;8.642;2024-01-25T07:49:31;5.20;;;2.05;;
16403;SDS011;8311;50.158;8.642;2024-01-25T07:52:24;7.78;;;2.50;;
16403;SDS011;8311;50.158;8.642;2024-01-25T07:55:18;7.45;;;1.80;;
16403;SDS011;8311;50.158;8.642;2024-01-25T07:58:11;7.70;;;2.42;;
16403;SDS011;8311;50.158;8.642;2024-01-25T08:01:04;6.65;;;2.17;;
16403;SDS011;8311;50.158;8.642;2024-01-25T08:03:59;4.68;;;1.90;;
16403;SDS011;8311;50.158;8.642;2024-01-25T08:06:53;6.25;;;2.22;;
16403;SDS011;8311;50.158;8.642;2024-01-25T08:09:47;5.63;;;1.83;;
16403;SDS011;8311;50.158;8.642;2024-01-25T08:12:43;5.45;;;2.15;;
16403;SDS011;8311;50.158;8.642;2024-01-25T08:15:50;6.70;;;2.60;;
16403;SDS011;8311;50.158;8.642;2024-01-25T08:18:43;6.88;;;2.35;;
16403;SDS011;8311;50.158;8.642;2024-01-25T08:21:36;6.57;;;2.60;;
16403;SDS011;8311;50.158;8.642;2024-01-25T08:24:31;6.63;;;2.10;;
16403;SDS011;8311;50.158;8.642;2024-01-25T08:27:24;5.55;;;2.10;;
16403;SDS011;8311;50.158;8.642;2024-01-25T08:30:17;5.38;;;1.70;;
16403;SDS011;8311;50.158;8.642;2024-01-25T08:33:10;5.00;;;2.08;;
16403;SDS011;8311;50.158;8.642;2024-01-25T08:36:05;5.25;;;2.00;;
16403;SDS011;8311;50.158;8.642;2024-01-25T08:38:58;6.30;;;2.00;;
16403;SDS011;8311;50.158;8.642;2024-01-25T08:41:53;11.43;;;2.28;;
16403;SDS011;8311;50.158;8.642;2024-01-25T08:44:46;4.80;;;1.77;;
16403;SDS011;8311;50.158;8.642;2024-01-25T08:47:41;4.00;;;2.03;;
16403;SDS011;8311;50.158;8.642;2024-01-25T08:50:36;5.50;;;1.95;;
16403;SDS011;8311;50.158;8.642;2024-01-25T08:53:29;4.40;;;1.90;;
16403;SDS011;8311;50.158;8.642;2024-01-25T08:56:22;5.15;;;2.35;;
16403;SDS011;8311;50.158;8.642;2024-01-25T08:59:17;4.85;;;2.25;;
16403;SDS011;8311;50.158;8.642;2024-01-25T09:05:55;5.75;;;2.22;;
16403;SDS011;8311;50.158;8.642;2024-01-25T09:08:48;8.68;;;2.33;;
16403;SDS011;8311;50.158;8.642;2024-01-25T09:11:42;6.03;;;2.50;;
16403;SDS011;8311;50.158;8.642;2024-01-25T09:14:36;4.70;;;1.90;;
16403;SDS011;8311;50.158;8.642;2024-01-25T09:17:29;6.72;;;2.25;;
16403;SDS011;8311;50.158;8.642;2024-01-25T09:20:22;7.07;;;2.28;;
16403;SDS011;8311;50.158;8.642;2024-01-25T09:23:15;6.35;;;2.20;;
16403;SDS011;8311;50.158;8.642;2024-01-25T09:26:08;14.55;;;2.80;;
16403;SDS011;8311;50.158;8.642;2024-01-25T09:29:02;4.45;;;1.95;;
16403;SDS011;8311;50.158;8.642;2024-01-25T09:31:58;5.68;;;2.10;;
16403;SDS011;8311;50.158;8.642;2024-01-25T09:34:50;8.32;;;2.33;;
16403;SDS011;8311;50.158;8.642;2024-01-25T09:37:45;5.95;;;2.17;;
16403;SDS011;8311;50.158;8.642;2024-01-25T09:40:38;9.80;;;3.15;;
16403;SDS011;8311;50.158;8.642;2024-01-25T09:43:32;18.02;;;5.78;;
16403;SDS011;8311;50.158;8.642;2024-01-25T09:46:25;18.42;;;6.53;;
16403;SDS011;8311;50.158;8.642;2024-01-25T09:49:21;18.10;;;5.55;;
16403;SDS011;8311;50.158;8.642;2024-01-25T09:52:15;14.75;;;5.53;;
16403;SDS011;8311;50.158;8.642;2024-01-25T09:55:15;22.08;;;5.72;;
16403;SDS011;8311;50.158;8.642;2024-01-25T09:58:12;16.23;;;5.70;;
16403;SDS011;8311;50.158;8.642;2024-01-25T10:01:11;18.20;;;4.85;;
16403;SDS011;8311;50.158;8.642;2024-01-25T10:04:06;16.23;;;5.43;;
16403;SDS011;8311;50.158;8.642;2024-01-25T10:07:02;14.25;;;5.55;;
16403;SDS011;8311;50.158;8.642;2024-01-25T10:09:55;14.00;;;4.43;;
16403;SDS011;8311;50.158;8.642;2024-01-25T10:12:48;16.20;;;5.18;;
16403;SDS011;8311;50.158;8.642;2024-01-25T10:15:42;13.25;;;4.35;;
16403;SDS011;8311;50.158;8.642;2024-01-25T10:18:36;14.73;;;5.35;;
16403;SDS011;8311;50.158;8.642;2024-01-25T10:21:30;15.73;;;4.75;;
16403;SDS011;8311;50.158;8.642;2024-01-25T10:24:26;12.38;;;4.57;;
16403;SDS011;8311;50.158;8.642;2024-01-25T10:27:20;15.27;;;5.25;;
16403;SDS011;8311;50.158;8.642;2024-01-25T10:30:15;11.27;;;4.07;;
16403;SDS011;8311;50.158;8.642;2024-01-25T10:33:09;13.80;;;4.30;;
16403;SDS011;8311;50.158;8.642;2024-01-25T10:36:04;15.60;;;4.25;;
16403;SDS011;8311;50.158;8.642;2024-01-25T10:39:00;19.10;;;5.65;;
16403;SDS011;8311;50.158;8.642;2024-01-25T10:41:59;15.48;;;5.32;;
16403;SDS011;8311;50.158;8.642;2024-01-25T10:44:53;12.98;;;4.10;;
16403;SDS011;8311;50.158;8.642;2024-01-25T10:47:48;16.52;;;4.70;;
16403;SDS011;8311;50.158;8.642;2024-01-25T10:50:41;12.35;;;4.63;;
16403;SDS011;8311;50.158;8.642;2024-01-25T10:53:36;12.25;;;4.68;;
16403;SDS011;8311;50.158;8.642;2024-01-25T10:56:30;16.55;;;4.68;;
16403;SDS011;8311;50.158;8.642;2024-01-25T10:59:25;14.18;;;5.18;;
16403;SDS011;8311;50.158;8.642;2024-01-25T11:02:20;12.00;;;4.60;;
16403;SDS011;8311;50.158;8.642;2024-01-25T11:05:17;12.68;;;3.75;;
16403;SDS011;8311;50.158;8.642;2024-01-25T11:08:17;12.70;;;4.28;;
16403;SDS011;8311;50.158;8.642;2024-01-25T11:11:12;11.63;;;3.70;;
16403;SDS011;8311;50.158;8.642;2024-01-25T11:14:10;13.45;;;4.18;;
16403;SDS011;8311;50.158;8.642;2024-01-25T11:17:15;9.18;;;3.67;;
16403;SDS011;8311;50.158;8.642;2024-01-25T11:20:12;13.10;;;4.38;;
16403;SDS011;8311;50.158;8.642;2024-01-25T11:23:07;9.95;;;4.25;;
16403;SDS011;8311;50.158;8.642;2024-01-25T11:26:00;14.10;;;3.97;;
16403;SDS011;8311;50.158;8.642;2024-01-25T11:28:54;8.95;;;3.55;;
16403;SDS011;8311;50.158;8.642;2024-01-25T11:31:48;12.27;;;3.83;;
16403;SDS011;8311;50.158;8.642;2024-01-25T11:34:44;13.27;;;4.63;;
16403;SDS011;8311;50.158;8.642;2024-01-25T11:37:36;14.27;;;4.25;;
16403;SDS011;8311;50.158;8.642;2024-01-25T11:40:29;11.23;;;3.63;;
16403;SDS011;8311;50.158;8.642;2024-01-25T11:43:27;10.75;;;4.13;;
16403;SDS011;8311;50.158;8.642;2024-01-25T11:50:07;10.43;;;3.90;;
16403;SDS011;8311;50.158;8.642;2024-01-25T11:53:01;9.75;;;3.97;;
16403;SDS011;8311;50.158;8.642;2024-01-25T11:55:56;10.38;;;3.95;;
16403;SDS011;8311;50.158;8.642;2024-01-25T11:58:49;9.70;;;3.58;;
16403;SDS011;8311;50.158;8.642;2024-01-25T12:01:44;11.73;;;4.03;;
16403;SDS011;8311;50.158;8.642;2024-01-25T12:04:39;13.73;;;4.00;;
16403;SDS011;8311;50.158;8.642;2024-01-25T12:07:34;12.25;;;4.28;;
16403;SDS011;8311;50.158;8.642;2024-01-25T12:10:28;10.82;;;4.35;;
16403;SDS011;8311;50.158;8.642;2024-01-25T12:13:21;11.90;;;3.85;;
16403;SDS011;8311;50.158;8.642;2024-01-25T12:16:15;10.18;;;3.40;;
16403;SDS011;8311;50.158;8.642;2024-01-25T12:19:09;9.60;;;3.60;;
16403;SDS011;8311;50.158;8.642;2024-01-25T12:22:03;10.68;;;3.47;;
16403;SDS011;8311;50.158;8.642;2024-01-25T12:28:42;10.73;;;3.92;;
16403;SDS011;8311;50.158;8.642;2024-01-25T12:31:36;11.27;;;3.95;;
16403;SDS011;8311;50.158;8.642;2024-01-25T12:34:29;11.63;;;3.65;;
16403;SDS011;8311;50.158;8.642;2024-01-25T12:37:25;11.95;;;3.90;;
16403;SDS011;8311;50.158;8.642;2024-01-25T12:40:19;9.27;;;3.47;;
16403;SDS011;8311;50.158;8.642;2024-01-25T12:43:12;9.45;;;3.22;;
16403;SDS011;8311;50.158;8.642;2024-01-25T12:46:07;10.82;;;3.55;;
16403;SDS011;8311;50.158;8.642;2024-01-25T12:49:17;10.50;;;3.15;;
16403;SDS011;8311;50.158;8.642;2024-01-25T12:52:14;11.50;;;3.50;;
16403;SDS011;8311;50.158;8.642;2024-01-25T12:55:07;10.05;;;3.83;;
16403;SDS011;8311;50.158;8.642;2024-01-25T12:58:02;9.57;;;3.50;;
16403;SDS011;8311;50.158;8.642;2024-01-25T13:00:55;11.00;;;3.92;;
16403;SDS011;8311;50.158;8.642;2024-01-25T13:03:50;10.93;;;3.30;;
16403;SDS011;8311;50.158;8.642;2024-01-25T13:06:43;9.55;;;3.08;;
16403;SDS011;8311;50.158;8.642;2024-01-25T13:09:37;7.15;;;2.90;;
16403;SDS011;8311;50.158;8.642;2024-01-25T13:12:30;7.38;;;3.25;;
16403;SDS011;8311;50.158;8.642;2024-01-25T13:15:22;10.88;;;3.42;;
16403;SDS011;8311;50.158;8.642;2024-01-25T13:18:15;9.95;;;3.53;;
16403;SDS011;8311;50.158;8.642;2024-01-25T13:24:54;7.50;;;3.30;;
16403;SDS011;8311;50.158;8.642;2024-01-25T13:27:46;8.15;;;3.47;;
16403;SDS011;8311;50.158;8.642;2024-01-25T13:30:39;8.45;;;3.22;;
16403;SDS011;8311;50.158;8.642;2024-01-25T13:33:33;8.90;;;3.47;;
16403;SDS011;8311;50.158;8.642;2024-01-25T13:36:27;8.73;;;3.47;;
16403;SDS011;8311;50.158;8.642;2024-01-25T13:39:19;11.57;;;3.50;;
16403;SDS011;8311;50.158;8.642;2024-01-25T13:42:15;8.82;;;3.25;;
16403;SDS011;8311;50.158;8.642;2024-01-25T13:45:08;9.30;;;3.42;;
16403;SDS011;8311;50.158;8.642;2024-01-25T13:48:02;10.02;;;3.60;;
16403;SDS011;8311;50.158;8.642;2024-01-25T13:50:55;9.63;;;3.45;;
16403;SDS011;8311;50.158;8.642;2024-01-25T13:53:49;7.47;;;3.08;;
16403;SDS011;8311;50.158;8.642;2024-01-25T13:56:43;7.10;;;2.80;;
16403;SDS011;8311;50.158;8.642;2024-01-25T13:59:37;8.45;;;3.28;;
16403;SDS011;8311;50.158;8.642;2024-01-25T14:02:31;7.32;;;2.92;;
16403;SDS011;8311;50.158;8.642;2024-01-25T14:09:08;6.55;;;2.75;;
16403;SDS011;8311;50.158;8.642;2024-01-25T14:12:01;8.30;;;2.97;;
16403;SDS011;8311;50.158;8.642;2024-01-25T14:14:56;6.38;;;2.95;;
16403;SDS011;8311;50.158;8.642;2024-01-25T14:17:48;7.47;;;3.17;;
16403;SDS011;8311;50.158;8.642;2024-01-25T14:20:42;7.85;;;2.92;;
16403;SDS011;8311;50.158;8.642;2024-01-25T14:23:35;7.10;;;2.75;;
16403;SDS011;8311;50.158;8.642;2024-01-25T14:26:29;8.40;;;2.88;;
16403;SDS011;8311;50.158;8.642;2024-01-25T14:29:23;7.22;;;2.85;;
16403;SDS011;8311;50.158;8.642;2024-01-25T14:32:18;6.07;;;2.33;;
16403;SDS011;8311;50.158;8.642;2024-01-25T14:35:13;5.97;;;2.45;;
16403;SDS011;8311;50.158;8.642;2024-01-25T14:38:07;8.75;;;3.30;;
16403;SDS011;8311;50.158;8.642;2024-01-25T14:41:00;6.35;;;2.72;;
16403;SDS011;8311;50.158;8.642;2024-01-25T14:43:54;7.43;;;2.75;;
16403;SDS011;8311;50.158;8.642;2024-01-25T14:46:46;8.00;;;2.65;;
16403;SDS011;8311;50.158;8.642;2024-01-25T14:49:41;6.22;;;2.50;;
16403;SDS011;8311;50.158;8.642;2024-01-25T14:52:34;8.93;;;2.67;;
16403;SDS011;8311;50.158;8.642;2024-01-25T14:55:29;6.18;;;2.70;;
16403;SDS011;8311;50.158;8.642;2024-01-25T14:58:22;5.90;;;2.58;;
16403;SDS011;8311;50.158;8.642;2024-01-25T15:05:01;7.22;;;2.85;;
16403;SDS011;8311;50.158;8.642;2024-01-25T15:07:55;6.88;;;2.47;;
16403;SDS011;8311;50.158;8.642;2024-01-25T15:10:48;7.82;;;2.75;;
16403;SDS011;8311;50.158;8.642;2024-01-25T15:13:42;7.45;;;2.90;;
16403;SDS011;8311;50.158;8.642;2024-01-25T15:20:21;6.03;;;2.60;;
16403;SDS011;8311;50.158;8.642;2024-01-25T15:23:15;19.40;;;5.40;;
16403;SDS011;8311;50.158;8.642;2024-01-25T15:26:09;19.55;;;5.72;;
16403;SDS011;8311;50.158;8.642;2024-01-25T15:29:03;19.02;;;5.35;;
16403;SDS011;8311;50.158;8.642;2024-01-25T15:31:55;32.95;;;7.15;;
16403;SDS011;8311;50.158;8.642;2024-01-25T15:34:48;20.20;;;5.03;;
16403;SDS011;8311;50.158;8.642;2024-01-25T15:37:43;24.42;;;5.88;;
16403;SDS011;8311;50.158;8.642;2024-01-25T15:40:36;17.42;;;5.05;;
16403;SDS011;8311;50.158;8.642;2024-01-25T15:43:30;16.70;;;5.38;;
16403;SDS011;8311;50.158;8.642;2024-01-25T15:46:24;17.77;;;4.68;;
16403;SDS011;8311;50.158;8.642;2024-01-25T15:49:18;22.23;;;5.45;;
16403;SDS011;8311;50.158;8.642;2024-01-25T15:52:15;16.88;;;5.57;;
16403;SDS011;8311;50.158;8.642;2024-01-25T15:55:11;14.07;;;4.88;;
16403;SDS011;8311;50.158;8.642;2024-01-25T15:58:05;14.07;;;4.50;;
16403;SDS011;8311;50.158;8.642;2024-01-25T16:00:58;18.52;;;5.68;;
16403;SDS011;8311;50.158;8.642;2024-01-25T16:03:51;15.70;;;4.68;;
16403;SDS011;8311;50.158;8.642;2024-01-25T16:06:44;13.18;;;4.93;;
16403;SDS011;8311;50.158;8.642;2024-01-25T16:09:37;11.35;;;4.10;;
16403;SDS011;8311;50.158;8.642;2024-01-25T16:16:16;14.07;;;4.15;;
16403;SDS011;8311;50.158;8.642;2024-01-25T16:19:09;13.60;;;3.80;;
16403;SDS011;8311;50.158;8.642;2024-01-25T16:22:03;13.88;;;3.80;;
16403;SDS011;8311;50.158;8.642;2024-01-25T16:24:56;13.45;;;4.22;;
16403;SDS011;8311;50.158;8.642;2024-01-25T16:27:50;11.40;;;3.58;;
16403;SDS011;8311;50.158;8.642;2024-01-25T16:30:42;11.90;;;3.72;;
16403;SDS011;8311;50.158;8.642;2024-01-25T16:33:37;13.60;;;4.72;;
16403;SDS011;8311;50.158;8.642;2024-01-25T16:36:31;16.17;;;4.82;;
16403;SDS011;8311;50.158;8.642;2024-01-25T16:39:24;13.25;;;4.22;;
16403;SDS011;8311;50.158;8.642;2024-01-25T16:42:16;9.88;;;4.40;;
16403;SDS011;8311;50.158;8.642;2024-01-25T16:45:10;11.52;;;4.45;;
16403;SDS011;8311;50.158;8.642;2024-01-25T16:48:03;13.80;;;5.18;;
16403;SDS011;8311;50.158;8.642;2024-01-25T16:50:59;14.45;;;4.05;;
16403;SDS011;8311;50.158;8.642;2024-01-25T16:57:36;11.35;;;4.32;;
16403;SDS011;8311;50.158;8.642;2024-01-25T17:00:29;11.98;;;4.38;;
16403;SDS011;8311;50.158;8.642;2024-01-25T17:03:23;13.10;;;4.18;;
16403;SDS011;8311;50.158;8.642;2024-01-25T17:06:17;12.77;;;4.60;;
16403;SDS011;8311;50.158;8.642;2024-01-25T17:09:11;10.35;;;4.43;;
16403;SDS011;8311;50.158;8.642;2024-01-25T17:12:06;9.85;;;3.88;;
16403;SDS011;8311;50.158;8.642;2024-01-25T17:15:00;8.68;;;3.50;;
16403;SDS011;8311;50.158;8.642;2024-01-25T17:17:53;13.38;;;5.45;;
16403;SDS011;8311;50.158;8.642;2024-01-25T17:24:31;15.93;;;4.90;;
16403;SDS011;8311;50.158;8.642;2024-01-25T17:27:25;10.27;;;4.32;;
16403;SDS011;8311;50.158;8.642;2024-01-25T17:30:19;15.43;;;5.22;;
16403;SDS011;8311;50.158;8.642;2024-01-25T17:33:12;10.70;;;4.68;;
16403;SDS011;8311;50.158;8.642;2024-01-25T17:36:06;14.20;;;5.18;;
16403;SDS011;8311;50.158;8.642;2024-01-25T17:39:00;10.95;;;4.25;;
16403;SDS011;8311;50.158;8.642;2024-01-25T17:41:55;11.68;;;4.38;;
16403;SDS011;8311;50.158;8.642;2024-01-25T17:44:48;12.68;;;5.28;;
16403;SDS011;8311;50.158;8.642;2024-01-25T17:47:41;11.45;;;4.38;;
16403;SDS011;8311;50.158;8.642;2024-01-25T17:50:35;10.35;;;3.67;;
16403;SDS011;8311;50.158;8.642;2024-01-25T17:53:28;16.23;;;4.95;;
16403;SDS011;8311;50.158;8.642;2024-01-25T17:56:22;10.98;;;4.25;;
16403;SDS011;8311;50.158;8.642;2024-01-25T17:59:16;11.35;;;3.80;;
16403;SDS011;8311;50.158;8.642;2024-01-25T18:02:10;11.05;;;4.15;;
16403;SDS011;8311;50.158;8.642;2024-01-25T18:08:47;16.30;;;4.70;;
16403;SDS011;8311;50.158;8.642;2024-01-25T18:11:40;14.00;;;4.32;;
16403;SDS011;8311;50.158;8.642;2024-01-25T18:14:34;11.57;;;3.92;;
16403;SDS011;8311;50.158;8.642;2024-01-25T18:17:27;12.18;;;3.95;;
16403;SDS011;8311;50.158;8.642;2024-01-25T18:20:21;15.50;;;4.25;;
16403;SDS011;8311;50.158;8.642;2024-01-25T18:23:15;16.52;;;4.00;;
16403;SDS011;8311;50.158;8.642;2024-01-25T18:26:08;11.55;;;4.15;;
16403;SDS011;8311;50.158;8.642;2024-01-25T18:29:01;11.13;;;3.70;;
16403;SDS011;8311;50.158;8.642;2024-01-25T18:31:56;9.77;;;3.85;;
16403;SDS011;8311;50.158;8.642;2024-01-25T18:34:50;13.55;;;4.75;;
16403;SDS011;8311;50.158;8.642;2024-01-25T18:37:44;17.00;;;4.53;;
16403;SDS011;8311;50.158;8.642;2024-01-25T18:40:38;18.13;;;5.57;;
16403;SDS011;8311;50.158;8.642;2024-01-25T18:43:31;13.93;;;4.53;;
16403;SDS011;8311;50.158;8.642;2024-01-25T18:46:25;16.15;;;4.97;;
16403;SDS011;8311;50.158;8.642;2024-01-25T18:49:20;21.83;;;4.60;;